sensor_id;sensor_type;location;lat;lon;timestamp;pressure;altitude;pressure_sealevel;temperature;humidity
65329;BME280;51941;52.210;5.158;2023-12-28T00:00:02;100707.41;;;9.16;76.20
65329;BME280;51941;52.210;5.158;2023-12-28T00:02:31;100713.97;;;9.18;76.23
65329;BME280;51941;52.210;5.158;2023-12-28T00:04:57;100705.03;;;9.10;76.48
65329;BME280;51941;52.210;5.158;2023-12-28T00:07:24;100710.81;;;9.13;76.43
65329;BME280;51941;52.210;5.158;2023-12-28T00:09:51;100718.72;;;9.02;76.88
65329;BME280;51941;52.210;5.158;2023-12-28T00:12:17;100718.19;;;8.93;77.55
65329;BME280;51941;52.210;5.158;2023-12-28T00:14:44;100713.00;;;9.03;76.93
65329;BME280;51941;52.210;5.158;2023-12-28T00:17:11;100721.06;;;9.03;77.35
65329;BME280;51941;52.210;5.158;2023-12-28T00:19:39;100718.00;;;9.05;77.47
65329;BME280;51941;52.210;5.158;2023-12-28T00:22:05;100718.47;;;9.10;77.38
65329;BME280;51941;52.210;5.158;2023-12-28T00:24:32;100716.94;;;9.13;77.47
65329;BME280;51941;52.210;5.158;2023-12-28T00:26:59;100733.75;;;9.06;77.74
65329;BME280;51941;52.210;5.158;2023-12-28T00:29:25;100734.22;;;9.12;77.70
65329;BME280;51941;52.210;5.158;2023-12-28T00:31:54;100734.09;;;9.05;78.19
65329;BME280;51941;52.210;5.158;2023-12-28T00:34:22;100726.88;;;9.09;78.26
65329;BME280;51941;52.210;5.158;2023-12-28T00:36:50;100743.41;;;9.11;78.18
65329;BME280;51941;52.210;5.158;2023-12-28T00:39:16;100744.19;;;9.11;77.93
65329;BME280;51941;52.210;5.158;2023-12-28T00:41:43;100746.47;;;9.09;78.31
65329;BME280;51941;52.210;5.158;2023-12-28T00:44:10;100738.72;;;9.04;78.59
65329;BME280;51941;52.210;5.158;2023-12-28T00:46:37;100730.28;;;9.06;77.90
65329;BME280;51941;52.210;5.158;2023-12-28T00:49:04;100737.88;;;9.00;78.66
65329;BME280;51941;52.210;5.158;2023-12-28T00:51:33;100732.81;;;8.95;78.75
65329;BME280;51941;52.210;5.158;2023-12-28T00:54:02;100750.03;;;8.90;78.72
65329;BME280;51941;52.210;5.158;2023-12-28T00:56:29;100746.56;;;8.90;78.72
65329;BME280;51941;52.210;5.158;2023-12-28T00:58:55;100741.59;;;8.92;78.74
65329;BME280;51941;52.210;5.158;2023-12-28T01:01:23;100745.06;;;8.93;78.87
65329;BME280;51941;52.210;5.158;2023-12-28T01:03:49;100735.88;;;8.94;78.76
65329;BME280;51941;52.210;5.158;2023-12-28T01:06:16;100741.19;;;8.90;79.35
65329;BME280;51941;52.210;5.158;2023-12-28T01:08:43;100740.41;;;8.89;79.13
65329;BME280;51941;52.210;5.158;2023-12-28T01:11:12;100748.91;;;8.91;79.01
65329;BME280;51941;52.210;5.158;2023-12-28T01:13:40;100740.03;;;8.91;79.34
65329;BME280;51941;52.210;5.158;2023-12-28T01:16:06;100752.75;;;8.94;79.59
65329;BME280;51941;52.210;5.158;2023-12-28T01:18:33;100753.88;;;8.93;79.56
65329;BME280;51941;52.210;5.158;2023-12-28T01:21:00;100751.25;;;8.97;79.39
65329;BME280;51941;52.210;5.158;2023-12-28T01:23:26;100746.63;;;8.94;79.46
65329;BME280;51941;52.210;5.158;2023-12-28T01:25:55;100742.31;;;8.89;79.41
65329;BME280;51941;52.210;5.158;2023-12-28T01:28:23;100746.84;;;8.85;79.69
65329;BME280;51941;52.210;5.158;2023-12-28T01:30:49;100752.66;;;8.87;79.40
65329;BME280;51941;52.210;5.158;2023-12-28T01:33:16;100747.94;;;8.80;79.66
65329;BME280;51941;52.210;5.158;2023-12-28T01:35:43;100755.22;;;8.80;79.65
65329;BME280;51941;52.210;5.158;2023-12-28T01:38:10;100745.53;;;8.75;79.60
65329;BME280;51941;52.210;5.158;2023-12-28T01:40:36;100748.22;;;8.75;79.79
65329;BME280;51941;52.210;5.158;2023-12-28T01:43:03;100746.31;;;8.76;79.51
65329;BME280;51941;52.210;5.158;2023-12-28T01:45:31;100752.09;;;8.78;79.47
65329;BME280;51941;52.210;5.158;2023-12-28T01:47:59;100756.22;;;8.71;79.88
65329;BME280;51941;52.210;5.158;2023-12-28T01:50:27;100748.59;;;8.74;79.98
65329;BME280;51941;52.210;5.158;2023-12-28T01:52:55;100752.50;;;8.76;79.94
65329;BME280;51941;52.210;5.158;2023-12-28T01:55:23;100749.00;;;8.76;79.85
65329;BME280;51941;52.210;5.158;2023-12-28T01:57:50;100738.63;;;8.74;79.75
65329;BME280;51941;52.210;5.158;2023-12-28T02:00:17;100751.19;;;8.66;80.08
65329;BME280;51941;52.210;5.158;2023-12-28T02:02:46;100755.94;;;8.77;79.96
65329;BME280;51941;52.210;5.158;2023-12-28T02:05:14;100749.88;;;8.80;79.76
65329;BME280;51941;52.210;5.158;2023-12-28T02:07:41;100753.06;;;8.89;79.61
65329;BME280;51941;52.210;5.158;2023-12-28T02:10:08;100745.06;;;8.93;79.50
65329;BME280;51941;52.210;5.158;2023-12-28T02:12:34;100750.03;;;8.90;79.25
65329;BME280;51941;52.210;5.158;2023-12-28T02:15:01;100753.94;;;8.97;79.77
65329;BME280;51941;52.210;5.158;2023-12-28T02:17:33;100762.13;;;9.04;79.44
65329;BME280;51941;52.210;5.158;2023-12-28T02:20:01;100744.50;;;9.06;78.81
65329;BME280;51941;52.210;5.158;2023-12-28T02:22:31;100754.53;;;9.09;78.92
65329;BME280;51941;52.210;5.158;2023-12-28T02:25:04;100748.06;;;9.14;78.80
65329;BME280;51941;52.210;5.158;2023-12-28T02:27:32;100749.56;;;9.11;78.66
65329;BME280;51941;52.210;5.158;2023-12-28T02:29:58;100736.22;;;9.19;78.62
65329;BME280;51941;52.210;5.158;2023-12-28T02:32:35;100723.16;;;9.17;78.01
65329;BME280;51941;52.210;5.158;2023-12-28T02:35:14;100731.66;;;9.23;77.92
65329;BME280;51941;52.210;5.158;2023-12-28T02:37:43;100729.38;;;9.21;77.86
65329;BME280;51941;52.210;5.158;2023-12-28T02:40:14;100732.97;;;9.06;77.93
65329;BME280;51941;52.210;5.158;2023-12-28T02:42:42;100728.16;;;9.19;77.88
65329;BME280;51941;52.210;5.158;2023-12-28T02:45:09;100725.44;;;9.15;77.70
65329;BME280;51941;52.210;5.158;2023-12-28T02:47:36;100723.88;;;9.14;77.76
65329;BME280;51941;52.210;5.158;2023-12-28T02:50:03;100707.75;;;9.14;77.68
65329;BME280;51941;52.210;5.158;2023-12-28T02:52:30;100717.75;;;9.14;77.43
65329;BME280;51941;52.210;5.158;2023-12-28T02:54:57;100716.44;;;9.04;77.70
65329;BME280;51941;52.210;5.158;2023-12-28T02:57:25;100725.63;;;9.03;78.04
65329;BME280;51941;52.210;5.158;2023-12-28T02:59:52;100714.06;;;8.99;77.93
65329;BME280;51941;52.210;5.158;2023-12-28T03:02:19;100728.69;;;9.01;78.27
65329;BME280;51941;52.210;5.158;2023-12-28T03:04:46;100717.56;;;9.03;78.29
65329;BME280;51941;52.210;5.158;2023-12-28T03:07:12;100717.94;;;9.01;78.43
65329;BME280;51941;52.210;5.158;2023-12-28T03:09:39;100726.94;;;9.13;78.45
65329;BME280;51941;52.210;5.158;2023-12-28T03:12:06;100731.25;;;9.17;78.29
65329;BME280;51941;52.210;5.158;2023-12-28T03:14:34;100725.13;;;9.20;77.92
65329;BME280;51941;52.210;5.158;2023-12-28T03:17:01;100736.63;;;9.21;77.83
65329;BME280;51941;52.210;5.158;2023-12-28T03:19:28;100725.19;;;9.24;77.95
65329;BME280;51941;52.210;5.158;2023-12-28T03:21:55;100724.34;;;9.20;77.81
65329;BME280;51941;52.210;5.158;2023-12-28T03:24:21;100728.28;;;9.26;77.88
65329;BME280;51941;52.210;5.158;2023-12-28T03:26:48;100719.09;;;9.27;77.70
65329;BME280;51941;52.210;5.158;2023-12-28T03:29:15;100716.75;;;9.25;77.53
65329;BME280;51941;52.210;5.158;2023-12-28T03:31:43;100714.72;;;9.19;77.48
65329;BME280;51941;52.210;5.158;2023-12-28T03:34:09;100700.94;;;9.20;77.27
65329;BME280;51941;52.210;5.158;2023-12-28T03:36:36;100708.22;;;9.20;77.21
65329;BME280;51941;52.210;5.158;2023-12-28T03:39:03;100690.06;;;9.09;77.47
65329;BME280;51941;52.210;5.158;2023-12-28T03:41:30;100695.00;;;9.07;77.47
65329;BME280;51941;52.210;5.158;2023-12-28T03:43:57;100683.44;;;9.03;77.45
65329;BME280;51941;52.210;5.158;2023-12-28T03:46:24;100698.69;;;8.96;78.01
65329;BME280;51941;52.210;5.158;2023-12-28T03:48:52;100693.25;;;8.92;77.67
65329;BME280;51941;52.210;5.158;2023-12-28T03:51:19;100700.16;;;8.93;77.55
65329;BME280;51941;52.210;5.158;2023-12-28T03:53:46;100701.53;;;8.80;77.89
65329;BME280;51941;52.210;5.158;2023-12-28T03:56:21;100710.75;;;8.82;78.07
65329;BME280;51941;52.210;5.158;2023-12-28T03:58:48;100708.78;;;8.79;78.24
65329;BME280;51941;52.210;5.158;2023-12-28T04:01:16;100708.38;;;8.77;78.29
65329;BME280;51941;52.210;5.158;2023-12-28T04:03:42;100707.88;;;8.68;78.54
65329;BME280;51941;52.210;5.158;2023-12-28T04:06:11;100686.25;;;8.61;78.75
65329;BME280;51941;52.210;5.158;2023-12-28T04:08:38;100715.47;;;8.66;78.60
65329;BME280;51941;52.210;5.158;2023-12-28T04:11:04;100699.41;;;8.69;78.73
65329;BME280;51941;52.210;5.158;2023-12-28T04:13:34;100706.03;;;8.76;79.04
65329;BME280;51941;52.210;5.158;2023-12-28T04:16:00;100712.91;;;8.73;78.58
65329;BME280;51941;52.210;5.158;2023-12-28T04:18:27;100708.53;;;8.88;78.85
65329;BME280;51941;52.210;5.158;2023-12-28T04:20:54;100712.13;;;8.96;78.48
65329;BME280;51941;52.210;5.158;2023-12-28T04:23:22;100706.06;;;9.02;78.40
65329;BME280;51941;52.210;5.158;2023-12-28T04:25:49;100718.03;;;9.08;78.36
65329;BME280;51941;52.210;5.158;2023-12-28T04:28:15;100710.75;;;9.09;77.83
65329;BME280;51941;52.210;5.158;2023-12-28T04:30:42;100715.06;;;9.14;77.81
65329;BME280;51941;52.210;5.158;2023-12-28T04:33:09;100719.38;;;9.22;77.54
65329;BME280;51941;52.210;5.158;2023-12-28T04:35:36;100714.06;;;9.25;77.69
65329;BME280;51941;52.210;5.158;2023-12-28T04:38:03;100719.44;;;9.25;77.53
65329;BME280;51941;52.210;5.158;2023-12-28T04:40:31;100712.84;;;9.23;77.42
65329;BME280;51941;52.210;5.158;2023-12-28T04:42:59;100727.16;;;9.27;77.16
65329;BME280;51941;52.210;5.158;2023-12-28T04:45:25;100711.75;;;9.24;76.96
65329;BME280;51941;52.210;5.158;2023-12-28T04:47:53;100722.91;;;9.26;76.68
65329;BME280;51941;52.210;5.158;2023-12-28T04:50:19;100706.78;;;9.26;76.19
65329;BME280;51941;52.210;5.158;2023-12-28T04:52:48;100709.63;;;9.37;76.56
65329;BME280;51941;52.210;5.158;2023-12-28T04:55:15;100706.91;;;9.33;76.32
65329;BME280;51941;52.210;5.158;2023-12-28T04:57:43;100706.22;;;9.40;76.37
65329;BME280;51941;52.210;5.158;2023-12-28T05:00:11;100699.72;;;9.41;75.68
65329;BME280;51941;52.210;5.158;2023-12-28T05:02:38;100708.09;;;9.36;75.58
65329;BME280;51941;52.210;5.158;2023-12-28T05:05:06;100728.94;;;9.46;76.10
65329;BME280;51941;52.210;5.158;2023-12-28T05:07:34;100727.81;;;9.47;75.68
65329;BME280;51941;52.210;5.158;2023-12-28T05:10:01;100710.19;;;9.49;75.47
65329;BME280;51941;52.210;5.158;2023-12-28T05:12:28;100712.81;;;9.46;74.94
65329;BME280;51941;52.210;5.158;2023-12-28T05:14:56;100722.50;;;9.54;75.36
65329;BME280;51941;52.210;5.158;2023-12-28T05:17:23;100716.69;;;9.48;74.88
65329;BME280;51941;52.210;5.158;2023-12-28T05:19:50;100720.16;;;9.49;74.88
65329;BME280;51941;52.210;5.158;2023-12-28T05:22:16;100717.53;;;9.53;74.72
65329;BME280;51941;52.210;5.158;2023-12-28T05:24:43;100708.25;;;9.50;74.56
65329;BME280;51941;52.210;5.158;2023-12-28T05:27:10;100727.13;;;9.54;74.63
65329;BME280;51941;52.210;5.158;2023-12-28T05:29:36;100720.97;;;9.53;74.71
65329;BME280;51941;52.210;5.158;2023-12-28T05:32:05;100726.00;;;9.55;74.67
65329;BME280;51941;52.210;5.158;2023-12-28T05:34:32;100742.16;;;9.58;74.13
65329;BME280;51941;52.210;5.158;2023-12-28T05:36:59;100722.31;;;9.66;74.36
65329;BME280;51941;52.210;5.158;2023-12-28T05:39:25;100725.75;;;9.67;73.94
65329;BME280;51941;52.210;5.158;2023-12-28T05:41:52;100713.13;;;9.71;74.14
65329;BME280;51941;52.210;5.158;2023-12-28T05:44:19;100724.66;;;9.72;73.60
65329;BME280;51941;52.210;5.158;2023-12-28T05:46:46;100708.16;;;9.73;74.01
65329;BME280;51941;52.210;5.158;2023-12-28T05:49:14;100722.72;;;9.68;73.53
65329;BME280;51941;52.210;5.158;2023-12-28T05:51:41;100718.16;;;9.73;73.98
65329;BME280;51941;52.210;5.158;2023-12-28T05:54:08;100730.81;;;9.72;73.58
65329;BME280;51941;52.210;5.158;2023-12-28T05:56:35;100736.19;;;9.72;73.68
65329;BME280;51941;52.210;5.158;2023-12-28T05:59:02;100740.34;;;9.66;73.30
65329;BME280;51941;52.210;5.158;2023-12-28T06:01:29;100730.03;;;9.72;73.64
65329;BME280;51941;52.210;5.158;2023-12-28T06:03:55;100733.50;;;9.72;73.21
65329;BME280;51941;52.210;5.158;2023-12-28T06:06:22;100729.25;;;9.71;73.63
65329;BME280;51941;52.210;5.158;2023-12-28T06:08:49;100740.44;;;9.73;73.47
65329;BME280;51941;52.210;5.158;2023-12-28T06:11:16;100734.34;;;9.80;73.41
65329;BME280;51941;52.210;5.158;2023-12-28T06:13:43;100743.63;;;9.82;73.23
65329;BME280;51941;52.210;5.158;2023-12-28T06:16:10;100736.94;;;9.69;72.66
65329;BME280;51941;52.210;5.158;2023-12-28T06:18:37;100734.28;;;9.73;73.06
65329;BME280;51941;52.210;5.158;2023-12-28T06:21:03;100737.75;;;9.73;73.10
65329;BME280;51941;52.210;5.158;2023-12-28T06:23:33;100739.72;;;9.80;73.17
65329;BME280;51941;52.210;5.158;2023-12-28T06:26:04;100736.28;;;9.79;72.86
65329;BME280;51941;52.210;5.158;2023-12-28T06:28:31;100751.31;;;9.84;73.01
65329;BME280;51941;52.210;5.158;2023-12-28T06:30:57;100755.56;;;9.85;72.98
65329;BME280;51941;52.210;5.158;2023-12-28T06:33:26;100750.59;;;9.87;73.04
65329;BME280;51941;52.210;5.158;2023-12-28T06:35:53;100760.53;;;9.83;72.99
65329;BME280;51941;52.210;5.158;2023-12-28T06:38:20;100764.00;;;9.83;72.89
65329;BME280;51941;52.210;5.158;2023-12-28T06:40:48;100765.03;;;9.75;72.38
65329;BME280;51941;52.210;5.158;2023-12-28T06:43:14;100762.81;;;9.81;72.81
65329;BME280;51941;52.210;5.158;2023-12-28T06:45:41;100763.16;;;9.79;72.32
65329;BME280;51941;52.210;5.158;2023-12-28T06:48:08;100760.84;;;9.78;72.40
65329;BME280;51941;52.210;5.158;2023-12-28T06:50:35;100761.34;;;9.87;72.20
65329;BME280;51941;52.210;5.158;2023-12-28T06:53:01;100762.13;;;9.87;72.50
65329;BME280;51941;52.210;5.158;2023-12-28T06:55:28;100767.03;;;9.82;72.35
65329;BME280;51941;52.210;5.158;2023-12-28T06:57:56;100777.13;;;9.88;72.19
65329;BME280;51941;52.210;5.158;2023-12-28T07:00:23;100768.28;;;9.88;72.31
65329;BME280;51941;52.210;5.158;2023-12-28T07:02:49;100777.13;;;9.88;72.33
65329;BME280;51941;52.210;5.158;2023-12-28T07:05:16;100776.03;;;9.93;72.44
65329;BME280;51941;52.210;5.158;2023-12-28T07:07:43;100784.44;;;9.92;72.35
65329;BME280;51941;52.210;5.158;2023-12-28T07:10:10;100787.13;;;9.88;72.25
65329;BME280;51941;52.210;5.158;2023-12-28T07:12:37;100785.09;;;9.81;71.65
65329;BME280;51941;52.210;5.158;2023-12-28T07:15:06;100800.56;;;9.88;72.28
65329;BME280;51941;52.210;5.158;2023-12-28T07:17:32;100802.88;;;9.89;71.95
65329;BME280;51941;52.210;5.158;2023-12-28T07:19:59;100808.25;;;9.89;72.29
65329;BME280;51941;52.210;5.158;2023-12-28T07:22:26;100801.69;;;9.87;72.21
65329;BME280;51941;52.210;5.158;2023-12-28T07:24:53;100812.75;;;9.78;71.97
65329;BME280;51941;52.210;5.158;2023-12-28T07:27:20;100805.81;;;9.77;71.67
65329;BME280;51941;52.210;5.158;2023-12-28T07:29:46;100808.38;;;9.70;72.20
65329;BME280;51941;52.210;5.158;2023-12-28T07:32:15;100804.97;;;9.73;72.15
65329;BME280;51941;52.210;5.158;2023-12-28T07:34:42;100815.22;;;9.64;72.49
65329;BME280;51941;52.210;5.158;2023-12-28T07:37:08;100814.03;;;9.61;72.50
65329;BME280;51941;52.210;5.158;2023-12-28T07:39:35;100815.97;;;9.61;72.39
65329;BME280;51941;52.210;5.158;2023-12-28T07:42:02;100816.78;;;9.65;72.63
65329;BME280;51941;52.210;5.158;2023-12-28T07:44:29;100816.44;;;9.66;72.49
65329;BME280;51941;52.210;5.158;2023-12-28T07:46:55;100825.91;;;9.57;72.61
65329;BME280;51941;52.210;5.158;2023-12-28T07:49:24;100824.50;;;9.66;72.30
65329;BME280;51941;52.210;5.158;2023-12-28T07:51:51;100828.72;;;9.67;72.59
65329;BME280;51941;52.210;5.158;2023-12-28T07:54:18;100828.38;;;9.69;72.48
65329;BME280;51941;52.210;5.158;2023-12-28T07:56:44;100837.94;;;9.66;72.19
65329;BME280;51941;52.210;5.158;2023-12-28T07:59:11;100832.59;;;9.70;72.42
65329;BME280;51941;52.210;5.158;2023-12-28T08:01:38;100840.78;;;9.77;72.58
65329;BME280;51941;52.210;5.158;2023-12-28T08:04:05;100833.88;;;9.80;72.48
65329;BME280;51941;52.210;5.158;2023-12-28T08:06:33;100832.34;;;9.79;72.56
65329;BME280;51941;52.210;5.158;2023-12-28T08:09:00;100830.72;;;9.74;71.80
65329;BME280;51941;52.210;5.158;2023-12-28T08:11:28;100827.78;;;9.83;72.30
65329;BME280;51941;52.210;5.158;2023-12-28T08:13:55;100847.38;;;9.83;72.15
65329;BME280;51941;52.210;5.158;2023-12-28T08:16:21;100847.25;;;9.73;72.53
65329;BME280;51941;52.210;5.158;2023-12-28T08:18:48;100857.47;;;9.63;72.44
65329;BME280;51941;52.210;5.158;2023-12-28T08:21:15;100846.84;;;9.74;72.60
65329;BME280;51941;52.210;5.158;2023-12-28T08:23:43;100846.91;;;9.78;72.38
65329;BME280;51941;52.210;5.158;2023-12-28T08:26:10;100851.94;;;9.79;71.93
65329;BME280;51941;52.210;5.158;2023-12-28T08:28:37;100851.63;;;9.84;72.63
65329;BME280;51941;52.210;5.158;2023-12-28T08:31:03;100866.31;;;9.90;72.55
65329;BME280;51941;52.210;5.158;2023-12-28T08:33:32;100854.41;;;9.92;72.53
65329;BME280;51941;52.210;5.158;2023-12-28T08:36:00;100856.38;;;9.95;72.46
65329;BME280;51941;52.210;5.158;2023-12-28T08:38:29;100854.03;;;9.93;72.15
65329;BME280;51941;52.210;5.158;2023-12-28T08:40:58;100841.81;;;9.99;72.29
65329;BME280;51941;52.210;5.158;2023-12-28T08:43:25;100845.19;;;9.93;71.60
65329;BME280;51941;52.210;5.158;2023-12-28T08:45:53;100856.84;;;10.00;72.42
65329;BME280;51941;52.210;5.158;2023-12-28T08:48:20;100847.56;;;9.98;71.71
65329;BME280;51941;52.210;5.158;2023-12-28T08:50:48;100859.94;;;10.02;72.01
65329;BME280;51941;52.210;5.158;2023-12-28T08:53:15;100849.59;;;10.04;71.87
65329;BME280;51941;52.210;5.158;2023-12-28T08:55:41;100864.63;;;10.09;71.99
65329;BME280;51941;52.210;5.158;2023-12-28T08:58:11;100863.84;;;10.08;71.46
65329;BME280;51941;52.210;5.158;2023-12-28T09:00:38;100864.31;;;10.14;72.02
65329;BME280;51941;52.210;5.158;2023-12-28T09:03:04;100873.09;;;10.11;71.54
65329;BME280;51941;52.210;5.158;2023-12-28T09:05:31;100852.38;;;10.12;71.78
65329;BME280;51941;52.210;5.158;2023-12-28T09:07:58;100870.69;;;10.02;70.89
65329;BME280;51941;52.210;5.158;2023-12-28T09:10:24;100875.31;;;10.02;71.81
65329;BME280;51941;52.210;5.158;2023-12-28T09:12:51;100876.72;;;9.92;71.96
65329;BME280;51941;52.210;5.158;2023-12-28T09:15:19;100882.22;;;10.03;71.50
65329;BME280;51941;52.210;5.158;2023-12-28T09:17:46;100878.59;;;10.18;71.66
65329;BME280;51941;52.210;5.158;2023-12-28T09:20:12;100877.47;;;10.23;71.58
65329;BME280;51941;52.210;5.158;2023-12-28T09:22:39;100902.50;;;10.23;71.47
65329;BME280;51941;52.210;5.158;2023-12-28T09:25:07;100889.81;;;10.24;71.54
65329;BME280;51941;52.210;5.158;2023-12-28T09:27:34;100899.25;;;10.10;71.97
65329;BME280;51941;52.210;5.158;2023-12-28T09:30:00;100898.97;;;10.19;71.95
65329;BME280;51941;52.210;5.158;2023-12-28T09:32:28;100899.25;;;10.10;72.37
65329;BME280;51941;52.210;5.158;2023-12-28T09:34:55;100895.56;;;10.22;72.22
65329;BME280;51941;52.210;5.158;2023-12-28T09:37:21;100899.84;;;10.27;72.09
65329;BME280;51941;52.210;5.158;2023-12-28T09:39:48;100891.13;;;10.37;71.76
65329;BME280;51941;52.210;5.158;2023-12-28T09:42:17;100905.72;;;10.36;71.32
65329;BME280;51941;52.210;5.158;2023-12-28T09:44:50;100901.03;;;10.29;70.25
65329;BME280;51941;52.210;5.158;2023-12-28T09:47:18;100905.78;;;10.40;71.17
65329;BME280;51941;52.210;5.158;2023-12-28T09:49:47;100912.34;;;10.42;70.79
65329;BME280;51941;52.210;5.158;2023-12-28T09:52:13;100911.56;;;10.42;70.85
65329;BME280;51941;52.210;5.158;2023-12-28T09:54:40;100905.81;;;10.43;70.55
65329;BME280;51941;52.210;5.158;2023-12-28T09:57:07;100926.16;;;10.41;70.43
65329;BME280;51941;52.210;5.158;2023-12-28T09:59:34;100925.47;;;10.47;70.57
65329;BME280;51941;52.210;5.158;2023-12-28T10:02:01;100925.53;;;10.51;70.28
65329;BME280;51941;52.210;5.158;2023-12-28T10:04:28;100934.28;;;10.44;70.20
65329;BME280;51941;52.210;5.158;2023-12-28T10:06:56;100934.75;;;10.50;70.42
65329;BME280;51941;52.210;5.158;2023-12-28T10:09:23;100942.06;;;10.49;70.49
65329;BME280;51941;52.210;5.158;2023-12-28T10:11:52;100948.91;;;10.43;70.85
65329;BME280;51941;52.210;5.158;2023-12-28T10:14:19;100947.63;;;10.34;71.55
65329;BME280;51941;52.210;5.158;2023-12-28T10:16:47;100948.16;;;10.16;72.37
65329;BME280;51941;52.210;5.158;2023-12-28T10:19:14;100949.69;;;10.17;72.22
65329;BME280;51941;52.210;5.158;2023-12-28T10:21:40;100953.59;;;10.20;72.37
65329;BME280;51941;52.210;5.158;2023-12-28T10:24:12;100942.44;;;10.21;72.67
65329;BME280;51941;52.210;5.158;2023-12-28T10:26:39;100937.06;;;10.21;72.95
65329;BME280;51941;52.210;5.158;2023-12-28T10:29:05;100941.66;;;10.21;72.91
65329;BME280;51941;52.210;5.158;2023-12-28T10:31:32;100938.25;;;10.24;72.96
65329;BME280;51941;52.210;5.158;2023-12-28T10:33:59;100936.66;;;10.19;72.86
65329;BME280;51941;52.210;5.158;2023-12-28T10:36:27;100936.69;;;10.23;72.95
65329;BME280;51941;52.210;5.158;2023-12-28T10:38:55;100938.97;;;10.21;72.92
65329;BME280;51941;52.210;5.158;2023-12-28T10:41:25;100932.94;;;10.31;72.36
65329;BME280;51941;52.210;5.158;2023-12-28T10:43:57;100944.00;;;10.22;71.78
65329;BME280;51941;52.210;5.158;2023-12-28T10:46:30;100929.84;;;10.29;72.05
65329;BME280;51941;52.210;5.158;2023-12-28T10:49:02;100947.88;;;10.25;70.79
65329;BME280;51941;52.210;5.158;2023-12-28T10:51:34;100930.06;;;10.43;71.29
65329;BME280;51941;52.210;5.158;2023-12-28T10:54:11;100926.19;;;10.44;71.00
65329;BME280;51941;52.210;5.158;2023-12-28T10:56:45;100932.03;;;10.50;70.85
65329;BME280;51941;52.210;5.158;2023-12-28T10:59:18;100939.06;;;10.58;70.65
65329;BME280;51941;52.210;5.158;2023-12-28T11:01:51;100939.16;;;10.65;70.42
65329;BME280;51941;52.210;5.158;2023-12-28T11:04:23;100936.88;;;10.67;69.62
65329;BME280;51941;52.210;5.158;2023-12-28T11:06:56;100932.25;;;10.68;69.54
65329;BME280;51941;52.210;5.158;2023-12-28T11:09:26;100930.41;;;10.76;70.09
65329;BME280;51941;52.210;5.158;2023-12-28T11:11:58;100918.47;;;10.73;69.47
65329;BME280;51941;52.210;5.158;2023-12-28T11:14:27;100918.16;;;10.82;69.80
65329;BME280;51941;52.210;5.158;2023-12-28T11:16:55;100917.38;;;10.81;69.84
65329;BME280;51941;52.210;5.158;2023-12-28T11:19:22;100933.91;;;10.80;69.60
65329;BME280;51941;52.210;5.158;2023-12-28T11:21:50;100930.47;;;10.79;69.17
65329;BME280;51941;52.210;5.158;2023-12-28T11:24:18;100920.41;;;10.76;69.26
65329;BME280;51941;52.210;5.158;2023-12-28T11:26:52;100919.28;;;10.77;69.04
65329;BME280;51941;52.210;5.158;2023-12-28T11:29:21;100921.28;;;10.87;69.55
65329;BME280;51941;52.210;5.158;2023-12-28T11:31:50;100910.88;;;10.86;69.18
65329;BME280;51941;52.210;5.158;2023-12-28T11:34:17;100905.84;;;10.81;68.54
65329;BME280;51941;52.210;5.158;2023-12-28T11:36:48;100897.56;;;10.63;69.47
65329;BME280;51941;52.210;5.158;2023-12-28T11:39:20;100910.75;;;10.72;68.90
65329;BME280;51941;52.210;5.158;2023-12-28T11:41:59;100901.84;;;10.67;69.24
65329;BME280;51941;52.210;5.158;2023-12-28T11:44:29;100915.81;;;10.77;69.32
65329;BME280;51941;52.210;5.158;2023-12-28T11:46:56;100896.47;;;10.67;68.44
65329;BME280;51941;52.210;5.158;2023-12-28T11:49:25;100897.72;;;10.77;69.52
65329;BME280;51941;52.210;5.158;2023-12-28T11:51:55;100924.31;;;10.79;68.80
65329;BME280;51941;52.210;5.158;2023-12-28T11:54:24;100904.63;;;10.75;69.21
65329;BME280;51941;52.210;5.158;2023-12-28T11:56:51;100905.03;;;10.77;69.34
65329;BME280;51941;52.210;5.158;2023-12-28T11:59:17;100902.75;;;10.79;69.42
65329;BME280;51941;52.210;5.158;2023-12-28T12:01:50;100908.09;;;10.75;69.50
65329;BME280;51941;52.210;5.158;2023-12-28T12:04:17;100904.69;;;10.82;69.51
65329;BME280;51941;52.210;5.158;2023-12-28T12:06:44;100904.69;;;10.82;69.52
65329;BME280;51941;52.210;5.158;2023-12-28T12:09:11;100894.28;;;10.80;69.19
65329;BME280;51941;52.210;5.158;2023-12-28T12:11:38;100899.28;;;10.82;69.07
65329;BME280;51941;52.210;5.158;2023-12-28T12:14:08;100882.63;;;10.69;68.73
65329;BME280;51941;52.210;5.158;2023-12-28T12:16:35;100894.63;;;10.75;69.14
65329;BME280;51941;52.210;5.158;2023-12-28T12:19:03;100866.88;;;10.71;68.90
65329;BME280;51941;52.210;5.158;2023-12-28T12:21:32;100890.31;;;10.67;69.01
65329;BME280;51941;52.210;5.158;2023-12-28T12:23:59;100879.13;;;10.68;68.42
65329;BME280;51941;52.210;5.158;2023-12-28T12:26:26;100887.38;;;10.83;68.74
65329;BME280;51941;52.210;5.158;2023-12-28T12:28:53;100880.75;;;10.73;68.48
65329;BME280;51941;52.210;5.158;2023-12-28T12:31:20;100890.59;;;10.96;68.56
65329;BME280;51941;52.210;5.158;2023-12-28T12:33:47;100890.28;;;11.01;68.34
65329;BME280;51941;52.210;5.158;2023-12-28T12:36:16;100883.00;;;11.05;68.39
65329;BME280;51941;52.210;5.158;2023-12-28T12:38:42;100864.88;;;11.02;68.22
65329;BME280;51941;52.210;5.158;2023-12-28T12:41:10;100873.44;;;11.11;68.26
65329;BME280;51941;52.210;5.158;2023-12-28T12:43:37;100865.34;;;11.11;67.70
65329;BME280;51941;52.210;5.158;2023-12-28T12:46:04;100877.94;;;11.00;67.78
65329;BME280;51941;52.210;5.158;2023-12-28T12:48:31;100880.25;;;11.01;67.03
65329;BME280;51941;52.210;5.158;2023-12-28T12:50:57;100879.56;;;11.08;67.95
65329;BME280;51941;52.210;5.158;2023-12-28T12:53:32;100877.97;;;11.03;67.22
65329;BME280;51941;52.210;5.158;2023-12-28T12:55:59;100866.44;;;11.03;68.01
65329;BME280;51941;52.210;5.158;2023-12-28T12:58:26;100866.81;;;11.05;67.19